Crni Vrh, Serbia
Current Conditions -  °F | °C
As of 5:30 PM on Thursday 23 Oct 2014 (Local Time) from LYNI Reporting Station
Broken Clouds Broken Clouds  
Wind Chill: 36°   Ceiling: 2000
Heat Index: 39°   Visibility: 6mi
Dew Point: 37°   Wind: 5mph
Humidity: 93%   Direction: 60°ENE
Pressure: 29.71"   Gusts: NA
Location:  44.12°N, 21.95°E
Report Text: LYNI 231530Z 06004KT 9999 SCT010 BKN020 04/03 Q1006 NOSIG
Loading
Personal Weather Stations






























Interactive Weather Map
Tropical Storm Tracking
New forecast layout! Learn more

10-Day Weather Forecast

Advertisements
Track Severe Weather on mobile